createdAt,value
2023-05-21T00:02:19.859Z,12.67
2023-05-21T00:04:46.729Z,12.72
2023-05-21T00:04:51.354Z,12.72
2023-05-21T00:07:13.468Z,12.41
2023-05-21T00:09:40.214Z,12.90
2023-05-21T00:09:51.450Z,12.90
2023-05-21T00:12:07.857Z,12.74
2023-05-21T00:14:35.052Z,13.01
2023-05-21T00:14:51.381Z,13.01
2023-05-21T00:17:01.478Z,12.96
2023-05-21T00:19:27.969Z,12.95
2023-05-21T00:19:51.381Z,12.95
2023-05-21T00:21:54.867Z,12.93
2023-05-21T00:24:21.341Z,12.92
2023-05-21T00:24:51.384Z,12.92
2023-05-21T00:26:47.816Z,12.56
2023-05-21T00:29:14.273Z,12.44
2023-05-21T00:29:51.364Z,12.44
2023-05-21T00:31:43.083Z,12.83
2023-05-21T00:34:09.716Z,12.78
2023-05-21T00:34:51.339Z,12.78
2023-05-21T00:36:36.687Z,12.51
2023-05-21T00:39:04.526Z,12.51
2023-05-21T00:39:51.469Z,12.51
2023-05-21T00:41:30.916Z,12.65
2023-05-21T00:44:00.255Z,12.25
2023-05-21T00:44:51.429Z,12.25
2023-05-21T00:46:28.542Z,12.43
2023-05-21T00:48:57.979Z,12.64
2023-05-21T00:49:51.388Z,12.64
2023-05-21T00:51:25.842Z,12.16
2023-05-21T00:53:53.157Z,12.34
2023-05-21T00:54:51.401Z,12.34
2023-05-21T00:56:21.901Z,12.31
2023-05-21T00:58:48.505Z,12.64
2023-05-21T00:59:51.352Z,12.64
2023-05-21T01:01:16.145Z,12.58
2023-05-21T01:03:42.965Z,12.45
2023-05-21T01:04:51.341Z,12.45
2023-05-21T01:06:10.958Z,12.61
2023-05-21T01:08:38.954Z,12.65
2023-05-21T01:09:51.359Z,12.65
2023-05-21T01:11:06.920Z,12.12
2023-05-21T01:13:36.907Z,12.44
2023-05-21T01:14:51.362Z,12.44
2023-05-21T01:16:06.628Z,11.52
2023-05-21T01:18:43.523Z,12.28
2023-05-21T01:19:51.451Z,12.28
2023-05-21T01:21:10.407Z,12.12
2023-05-21T01:23:39.446Z,11.96
2023-05-21T01:24:51.358Z,11.96
2023-05-21T01:26:07.293Z,12.45
2023-05-21T01:28:34.528Z,12.41
2023-05-21T01:29:51.349Z,12.41
2023-05-21T01:31:20.449Z,12.07
2023-05-21T01:33:49.982Z,12.35
2023-05-21T01:34:51.366Z,12.35
2023-05-21T01:36:26.769Z,12.33
2023-05-21T01:39:02.116Z,12.23
2023-05-21T01:39:51.411Z,12.23
2023-05-21T01:41:33.105Z,12.14
2023-05-21T01:44:03.592Z,11.87
2023-05-21T01:44:51.373Z,11.87
2023-05-21T01:46:32.391Z,11.99
2023-05-21T01:48:59.262Z,12.30
2023-05-21T01:49:51.371Z,12.30
2023-05-21T01:51:26.543Z,12.00
2023-05-21T01:53:52.928Z,11.91
2023-05-21T01:54:51.388Z,11.91
2023-05-21T01:56:19.411Z,11.71
2023-05-21T01:58:45.821Z,12.14
2023-05-21T01:59:51.377Z,12.14
2023-05-21T02:01:12.467Z,12.13
2023-05-21T02:03:39.266Z,11.93
2023-05-21T02:04:51.468Z,11.93
2023-05-21T02:06:05.787Z,12.04
2023-05-21T02:08:33.391Z,12.09
2023-05-21T02:09:51.366Z,12.09
2023-05-21T02:10:59.794Z,12.04
2023-05-21T02:13:26.839Z,12.01
2023-05-21T02:14:51.367Z,12.01
2023-05-21T02:15:54.673Z,11.68
2023-05-21T02:18:21.708Z,11.45
2023-05-21T02:19:51.360Z,11.45
2023-05-21T02:20:48.165Z,11.55
2023-05-21T02:23:14.603Z,11.90
2023-05-21T02:24:51.358Z,11.90
2023-05-21T02:25:40.979Z,11.35
2023-05-21T02:28:07.791Z,11.89
2023-05-21T02:29:51.366Z,11.89
2023-05-21T02:30:34.462Z,11.87
2023-05-21T02:33:00.926Z,11.54
2023-05-21T02:34:51.388Z,11.54
2023-05-21T02:35:27.560Z,11.88
2023-05-21T02:37:58.944Z,11.30
2023-05-21T02:39:51.407Z,11.30
2023-05-21T02:40:25.443Z,11.49
2023-05-21T02:42:51.882Z,11.48
2023-05-21T02:44:51.382Z,11.48
2023-05-21T02:45:18.261Z,11.79
2023-05-21T02:47:44.952Z,11.30
2023-05-21T02:49:51.379Z,11.30
2023-05-21T02:50:13.569Z,11.35
2023-05-21T02:52:40.007Z,11.33
2023-05-21T02:54:51.430Z,11.33
2023-05-21T02:55:06.983Z,11.64
2023-05-21T02:57:33.550Z,11.51
2023-05-21T02:59:51.367Z,11.51
2023-05-21T02:59:59.915Z,11.50
2023-05-21T03:02:26.462Z,11.79
2023-05-21T03:04:51.591Z,11.79
2023-05-21T03:04:52.983Z,11.51
2023-05-21T03:07:19.721Z,11.65
2023-05-21T03:09:47.096Z,11.42
2023-05-21T03:09:51.388Z,11.42
2023-05-21T03:12:13.559Z,11.54
2023-05-21T03:14:42.466Z,11.47
2023-05-21T03:14:51.487Z,11.47
2023-05-21T03:17:08.884Z,11.71
2023-05-21T03:19:36.396Z,11.71
2023-05-21T03:19:51.383Z,11.71
2023-05-21T03:22:06.641Z,11.74
2023-05-21T03:24:33.354Z,11.73
2023-05-21T03:24:51.393Z,11.73
2023-05-21T03:27:01.393Z,11.45
2023-05-21T03:29:28.459Z,11.28
2023-05-21T03:29:51.391Z,11.28
2023-05-21T03:31:55.572Z,11.52
2023-05-21T03:34:22.130Z,11.79
2023-05-21T03:34:51.379Z,11.79
2023-05-21T03:36:48.642Z,11.82
2023-05-21T03:39:15.194Z,10.77
2023-05-21T03:39:51.442Z,10.77
2023-05-21T03:41:41.607Z,11.83
2023-05-21T03:44:08.235Z,11.65
2023-05-21T03:44:51.418Z,11.65
2023-05-21T03:46:34.852Z,11.70
2023-05-21T03:49:01.456Z,11.87
2023-05-21T03:49:51.416Z,11.87
2023-05-21T03:51:27.995Z,11.89
2023-05-21T03:53:54.453Z,11.23
2023-05-21T03:54:51.389Z,11.23
2023-05-21T03:56:21.592Z,11.41
2023-05-21T03:58:48.035Z,11.95
2023-05-21T03:59:51.396Z,11.95
2023-05-21T04:01:14.600Z,11.93
2023-05-21T04:03:41.327Z,11.77
2023-05-21T04:04:51.547Z,11.77
2023-05-21T04:06:10.126Z,11.31
2023-05-21T04:08:37.984Z,12.01
2023-05-21T04:09:51.389Z,12.01
2023-05-21T04:11:04.457Z,12.02
2023-05-21T04:13:30.826Z,12.05
2023-05-21T04:14:51.367Z,12.05
2023-05-21T04:15:57.272Z,12.06
2023-05-21T04:18:25.911Z,12.06
2023-05-21T04:19:51.373Z,12.06
2023-05-21T04:20:52.516Z,11.79
2023-05-21T04:23:19.068Z,12.11
2023-05-21T04:24:51.418Z,12.11
2023-05-21T04:25:45.552Z,11.10
2023-05-21T04:28:19.814Z,11.71
2023-05-21T04:29:51.385Z,11.71
2023-05-21T04:30:47.634Z,11.69
2023-05-21T04:33:17.895Z,11.77
2023-05-21T04:34:51.403Z,11.77
2023-05-21T04:35:50.095Z,11.86
2023-05-21T04:38:20.483Z,12.34
2023-05-21T04:39:51.444Z,12.34
2023-05-21T04:40:53.759Z,11.36
2023-05-21T04:43:28.181Z,12.36
2023-05-21T04:44:51.363Z,12.36
2023-05-21T04:45:54.868Z,12.38
2023-05-21T04:48:23.017Z,12.32
2023-05-21T04:49:51.410Z,12.32
2023-05-21T04:50:49.428Z,12.28
2023-05-21T04:53:16.062Z,12.00
2023-05-21T04:54:51.386Z,12.00
2023-05-21T04:55:42.646Z,12.53
2023-05-21T04:58:12.288Z,12.48
2023-05-21T04:59:51.400Z,12.48
2023-05-21T05:00:42.108Z,12.26
2023-05-21T05:03:08.629Z,12.64
2023-05-21T05:04:51.410Z,12.64
2023-05-21T05:05:35.365Z,12.34
2023-05-21T05:08:02.473Z,12.69
2023-05-21T05:09:51.377Z,12.69
2023-05-21T05:10:31.303Z,12.73
2023-05-21T05:12:57.718Z,12.72
2023-05-21T05:14:51.395Z,12.72
2023-05-21T05:15:24.171Z,12.39
2023-05-21T05:17:50.655Z,12.57
2023-05-21T05:19:51.400Z,12.57
2023-05-21T05:20:17.192Z,12.77
2023-05-21T05:22:43.587Z,12.94
2023-05-21T05:24:51.404Z,12.94
2023-05-21T05:25:10.169Z,12.95
2023-05-21T05:27:38.372Z,12.90
2023-05-21T05:29:51.387Z,12.90
2023-05-21T05:30:05.578Z,11.32
2023-05-21T05:32:32.097Z,12.68
2023-05-21T05:34:51.409Z,12.68
2023-05-21T05:34:59.528Z,11.88
2023-05-21T05:37:27.384Z,12.66
2023-05-21T05:39:51.467Z,12.66
2023-05-21T05:39:53.774Z,12.56
2023-05-21T05:42:20.245Z,13.25
2023-05-21T05:44:46.683Z,13.22
2023-05-21T05:44:51.397Z,13.22
2023-05-21T05:47:13.104Z,12.93
2023-05-21T05:49:39.609Z,12.95
2023-05-21T05:49:51.416Z,12.95
2023-05-21T05:52:06.642Z,13.45
2023-05-21T05:54:33.553Z,13.46
2023-05-21T05:54:51.374Z,13.46
2023-05-21T05:57:00.050Z,13.25
2023-05-21T05:59:26.567Z,12.63
2023-05-21T05:59:51.426Z,12.63
2023-05-21T06:01:52.952Z,13.22
2023-05-21T06:04:19.372Z,13.19
2023-05-21T06:04:51.393Z,13.19
2023-05-21T06:06:46.056Z,13.64
2023-05-21T06:09:12.543Z,13.71
2023-05-21T06:09:51.388Z,13.71
2023-05-21T06:11:40.267Z,13.64
2023-05-21T06:14:06.686Z,13.27
2023-05-21T06:14:51.419Z,13.27
2023-05-21T06:16:33.902Z,13.94
2023-05-21T06:19:00.636Z,14.04
2023-05-21T06:19:51.413Z,14.04
2023-05-21T06:21:27.155Z,13.89
2023-05-21T06:23:53.582Z,14.04
2023-05-21T06:24:51.434Z,14.04
2023-05-21T06:26:20.146Z,13.26
2023-05-21T06:28:46.668Z,14.23
2023-05-21T06:29:51.404Z,14.23
2023-05-21T06:31:13.632Z,14.10
2023-05-21T06:33:40.179Z,13.88
2023-05-21T06:34:51.411Z,13.88
2023-05-21T06:36:06.780Z,14.29
2023-05-21T06:38:33.335Z,14.53
2023-05-21T06:39:51.490Z,14.53
2023-05-21T06:41:00.027Z,14.72
2023-05-21T06:43:26.445Z,14.88
2023-05-21T06:44:51.377Z,14.88
2023-05-21T06:45:52.876Z,14.29
2023-05-21T06:48:19.345Z,15.29
2023-05-21T06:49:51.409Z,15.29
2023-05-21T06:50:45.804Z,15.36
2023-05-21T06:53:13.833Z,14.83
2023-05-21T06:54:51.401Z,14.83
2023-05-21T06:55:40.221Z,14.87
2023-05-21T06:58:06.689Z,15.47
2023-05-21T06:59:51.397Z,15.47
2023-05-21T07:00:35.471Z,15.20
2023-05-21T07:03:02.028Z,14.83
2023-05-21T07:04:51.413Z,14.83
2023-05-21T07:05:29.721Z,15.34
2023-05-21T07:07:56.493Z,15.11
2023-05-21T07:09:51.445Z,15.11
2023-05-21T07:10:22.913Z,15.64
2023-05-21T07:12:49.368Z,15.37
2023-05-21T07:14:51.411Z,15.37
2023-05-21T07:15:15.827Z,15.87
2023-05-21T07:17:42.197Z,16.20
2023-05-21T07:19:51.441Z,16.20
2023-05-21T07:20:09.985Z,15.97
2023-05-21T07:22:38.874Z,16.19
2023-05-21T07:24:51.403Z,16.19
2023-05-21T07:25:06.614Z,16.57
2023-05-21T07:27:33.009Z,16.49
2023-05-21T07:29:51.390Z,16.49
2023-05-21T07:29:59.379Z,15.85
2023-05-21T07:32:26.835Z,16.17
2023-05-21T07:34:54.222Z,16.17
2023-05-21T07:34:54.282Z,16.42
2023-05-21T07:37:21.391Z,16.46
2023-05-21T07:39:47.914Z,15.84
2023-05-21T07:39:51.505Z,15.84
2023-05-21T07:42:14.337Z,16.90
2023-05-21T07:44:40.807Z,16.41
2023-05-21T07:44:51.378Z,16.41
2023-05-21T07:47:07.234Z,16.40
2023-05-21T07:49:33.677Z,16.73
2023-05-21T07:49:51.429Z,16.73
2023-05-21T07:52:00.116Z,17.16
2023-05-21T07:54:28.976Z,17.00
2023-05-21T07:54:51.501Z,17.00
2023-05-21T07:56:55.385Z,16.98
2023-05-21T07:59:21.844Z,17.25
2023-05-21T07:59:51.404Z,17.25
2023-05-21T08:01:48.298Z,17.19
2023-05-21T08:04:14.832Z,16.83
2023-05-21T08:04:51.432Z,16.83
2023-05-21T08:06:41.411Z,16.88
2023-05-21T08:09:08.224Z,16.89
2023-05-21T08:09:51.412Z,16.89
2023-05-21T08:11:34.720Z,17.20
2023-05-21T08:14:01.080Z,17.53
2023-05-21T08:14:51.409Z,17.53
2023-05-21T08:16:27.547Z,17.17
2023-05-21T08:18:54.106Z,18.14
2023-05-21T08:19:51.400Z,18.14
2023-05-21T08:21:20.793Z,18.02
2023-05-21T08:23:51.957Z,17.80
2023-05-21T08:24:51.417Z,17.80
2023-05-21T08:26:18.370Z,17.73
2023-05-21T08:28:44.777Z,17.56
2023-05-21T08:29:51.389Z,17.56
2023-05-21T08:31:11.280Z,18.28
2023-05-21T08:33:38.474Z,18.32
2023-05-21T08:34:51.387Z,18.32
2023-05-21T08:36:08.383Z,18.10
2023-05-21T08:38:34.955Z,18.51
2023-05-21T08:39:51.425Z,18.51
2023-05-21T08:41:01.444Z,18.12
2023-05-21T08:43:28.490Z,18.29
2023-05-21T08:44:51.402Z,18.29
2023-05-21T08:45:57.154Z,18.26
2023-05-21T08:48:24.162Z,18.40
2023-05-21T08:49:51.402Z,18.40
2023-05-21T08:50:52.391Z,18.33
2023-05-21T08:53:27.314Z,18.43
2023-05-21T08:54:51.459Z,18.43
2023-05-21T08:55:58.243Z,18.06
2023-05-21T08:58:24.651Z,18.49
2023-05-21T08:59:51.405Z,18.49
2023-05-21T09:00:51.329Z,18.28
2023-05-21T09:03:17.917Z,18.50
2023-05-21T09:04:51.395Z,18.50
2023-05-21T09:05:45.830Z,18.60
2023-05-21T09:08:19.023Z,19.40
2023-05-21T09:09:51.391Z,19.40
2023-05-21T09:10:50.187Z,19.91
2023-05-21T09:13:18.310Z,19.73
2023-05-21T09:14:51.440Z,19.73
2023-05-21T09:15:45.625Z,19.59
2023-05-21T09:18:12.633Z,19.25
2023-05-21T09:19:51.396Z,19.25
2023-05-21T09:20:39.647Z,19.51
2023-05-21T09:23:12.222Z,18.73
2023-05-21T09:24:51.422Z,18.73
2023-05-21T09:25:39.130Z,19.46
2023-05-21T09:28:12.294Z,19.25
2023-05-21T09:29:51.452Z,19.25
2023-05-21T09:30:47.280Z,19.55
2023-05-21T09:33:24.589Z,20.30
2023-05-21T09:34:51.437Z,20.30
2023-05-21T09:35:51.000Z,20.43
2023-05-21T09:38:17.702Z,20.23
2023-05-21T09:39:51.486Z,20.23
2023-05-21T09:40:48.205Z,20.22
2023-05-21T09:43:18.066Z,20.47
2023-05-21T09:44:51.481Z,20.47
2023-05-21T09:45:55.760Z,20.06
2023-05-21T09:48:42.768Z,20.78
2023-05-21T09:49:51.525Z,20.78
2023-05-21T09:51:13.182Z,20.53
2023-05-21T09:53:59.728Z,20.20
2023-05-21T09:54:51.439Z,20.20
2023-05-21T09:56:29.222Z,20.81
2023-05-21T09:58:58.340Z,21.05
2023-05-21T09:59:51.443Z,21.05
2023-05-21T10:01:25.022Z,20.76
2023-05-21T10:03:56.466Z,21.07
2023-05-21T10:04:51.488Z,21.07
2023-05-21T10:06:32.222Z,20.25
2023-05-21T10:09:03.961Z,20.62
2023-05-21T10:09:51.443Z,20.62
2023-05-21T10:11:32.147Z,20.96
2023-05-21T10:14:04.902Z,20.83
2023-05-21T10:14:51.462Z,20.83
2023-05-21T10:16:33.384Z,21.08
2023-05-21T10:19:00.792Z,21.07
2023-05-21T10:19:51.442Z,21.07
2023-05-21T10:21:27.686Z,21.07
2023-05-21T10:23:58.973Z,20.87
2023-05-21T10:24:51.471Z,20.87
2023-05-21T10:26:26.378Z,21.16
2023-05-21T10:28:56.069Z,21.49
2023-05-21T10:29:51.457Z,21.49
2023-05-21T10:31:23.173Z,21.22
2023-05-21T10:33:51.017Z,21.40
2023-05-21T10:34:51.462Z,21.40
2023-05-21T10:36:20.204Z,22.06
2023-05-21T10:38:47.045Z,21.49
2023-05-21T10:39:51.567Z,21.49
2023-05-21T10:41:16.888Z,22.30
2023-05-21T10:43:54.291Z,22.46
2023-05-21T10:44:51.492Z,22.46
2023-05-21T10:46:42.039Z,22.83
2023-05-21T10:49:38.443Z,22.34
2023-05-21T10:49:51.522Z,22.34
2023-05-21T10:52:32.962Z,22.57
2023-05-21T10:54:51.454Z,22.57
2023-05-21T10:55:23.549Z,22.92
2023-05-21T10:58:12.349Z,22.50
2023-05-21T10:59:51.446Z,22.50
2023-05-21T11:00:39.478Z,22.30
2023-05-21T11:03:07.559Z,22.90
2023-05-21T11:04:51.473Z,22.90
2023-05-21T11:05:56.059Z,22.93
2023-05-21T11:08:23.577Z,22.42
2023-05-21T11:09:51.473Z,22.42
2023-05-21T11:10:55.249Z,22.38
2023-05-21T11:13:21.733Z,22.92
2023-05-21T11:14:51.469Z,22.92
2023-05-21T11:15:57.160Z,22.72
2023-05-21T11:18:24.294Z,22.38
2023-05-21T11:19:51.554Z,22.38
2023-05-21T11:20:51.766Z,22.03
2023-05-21T11:23:21.767Z,22.22
2023-05-21T11:24:51.702Z,22.22
2023-05-21T11:26:02.022Z,22.55
2023-05-21T11:28:34.479Z,22.27
2023-05-21T11:29:51.487Z,22.27
2023-05-21T11:31:19.699Z,22.91
2023-05-21T11:33:47.802Z,23.37
2023-05-21T11:34:51.480Z,23.37
2023-05-21T11:36:14.169Z,23.13
2023-05-21T11:38:40.610Z,22.71
2023-05-21T11:39:51.489Z,22.71
2023-05-21T11:41:09.260Z,23.21
2023-05-21T11:43:40.409Z,23.30
2023-05-21T11:44:51.481Z,23.30
2023-05-21T11:46:06.869Z,23.24
2023-05-21T11:48:33.277Z,23.41
2023-05-21T11:49:51.663Z,23.41
2023-05-21T11:51:01.103Z,23.12
2023-05-21T11:53:32.650Z,23.08
2023-05-21T11:54:51.491Z,23.08
2023-05-21T11:56:02.034Z,23.49
2023-05-21T11:58:31.491Z,23.50
2023-05-21T11:59:51.481Z,23.50
2023-05-21T12:00:57.916Z,23.33
2023-05-21T12:03:26.938Z,23.03
2023-05-21T12:04:51.494Z,23.03
2023-05-21T12:05:54.187Z,22.45
2023-05-21T12:08:28.841Z,22.98
2023-05-21T12:09:51.486Z,22.98
2023-05-21T12:11:01.802Z,22.50
2023-05-21T12:13:28.852Z,23.10
2023-05-21T12:14:51.492Z,23.10
2023-05-21T12:15:55.363Z,23.06
2023-05-21T12:18:21.998Z,23.41
2023-05-21T12:19:51.475Z,23.41
2023-05-21T12:20:48.528Z,23.38
2023-05-21T12:23:23.884Z,23.22
2023-05-21T12:24:51.461Z,23.22
2023-05-21T12:25:51.265Z,23.18
2023-05-21T12:28:17.797Z,22.98
2023-05-21T12:29:51.495Z,22.98
2023-05-21T12:30:44.277Z,23.43
2023-05-21T12:33:12.079Z,23.40
2023-05-21T12:34:51.524Z,23.40
2023-05-21T12:35:38.605Z,23.24
2023-05-21T12:38:05.035Z,23.53
2023-05-21T12:39:51.516Z,23.53
2023-05-21T12:40:39.603Z,23.87
2023-05-21T12:43:07.032Z,23.75
2023-05-21T12:44:51.486Z,23.75
2023-05-21T12:45:33.552Z,23.65
2023-05-21T12:48:03.464Z,23.60
2023-05-21T12:49:53.060Z,23.60
2023-05-21T12:50:30.010Z,22.72
2023-05-21T12:52:58.365Z,23.17
2023-05-21T12:54:51.482Z,23.17
2023-05-21T12:55:28.585Z,23.39
2023-05-21T12:58:07.738Z,24.01
2023-05-21T12:59:51.512Z,24.01
2023-05-21T13:00:34.605Z,24.03
2023-05-21T13:03:04.564Z,24.03
2023-05-21T13:04:51.486Z,24.03
2023-05-21T13:05:31.397Z,23.74
2023-05-21T13:07:57.817Z,23.53
2023-05-21T13:09:51.487Z,23.53
2023-05-21T13:10:24.316Z,23.50
2023-05-21T13:12:50.755Z,23.43
2023-05-21T13:14:51.485Z,23.43
2023-05-21T13:15:17.406Z,23.81
2023-05-21T13:17:43.861Z,23.59
2023-05-21T13:19:51.497Z,23.59
2023-05-21T13:20:15.167Z,23.76
2023-05-21T13:22:47.329Z,23.62
2023-05-21T13:24:51.474Z,23.62
2023-05-21T13:25:17.176Z,23.41
2023-05-21T13:27:44.038Z,23.22
2023-05-21T13:29:51.486Z,23.22
2023-05-21T13:30:13.787Z,23.59
2023-05-21T13:32:41.779Z,23.46
2023-05-21T13:34:51.488Z,23.46
2023-05-21T13:35:09.849Z,23.33
2023-05-21T13:37:36.386Z,24.32
2023-05-21T13:39:51.519Z,24.32
2023-05-21T13:40:04.125Z,24.15
2023-05-21T13:42:30.533Z,24.41
2023-05-21T13:44:51.503Z,24.41
2023-05-21T13:44:56.930Z,24.83
2023-05-21T13:47:23.376Z,24.82
2023-05-21T13:49:49.916Z,24.17
2023-05-21T13:49:51.513Z,24.17
2023-05-21T13:52:16.996Z,23.58
2023-05-21T13:54:43.680Z,24.30
2023-05-21T13:54:51.484Z,24.30
2023-05-21T13:57:10.435Z,25.02
2023-05-21T13:59:36.903Z,24.82
2023-05-21T13:59:51.484Z,24.82
2023-05-21T14:02:03.933Z,24.46
2023-05-21T14:04:30.892Z,23.62
2023-05-21T14:04:51.485Z,23.62
2023-05-21T14:06:57.494Z,23.94
2023-05-21T14:09:27.052Z,23.92
2023-05-21T14:09:51.492Z,23.92
2023-05-21T14:11:54.976Z,23.82
2023-05-21T14:14:21.951Z,23.91
2023-05-21T14:14:51.503Z,23.91
2023-05-21T14:16:49.177Z,24.34
2023-05-21T14:19:16.090Z,24.11
2023-05-21T14:19:51.500Z,24.11
2023-05-21T14:21:42.980Z,24.74
2023-05-21T14:24:09.711Z,25.00
2023-05-21T14:24:51.478Z,25.00
2023-05-21T14:26:39.925Z,25.04
2023-05-21T14:29:06.831Z,25.11
2023-05-21T14:29:51.484Z,25.11
2023-05-21T14:31:33.264Z,25.51
2023-05-21T14:33:59.789Z,25.42
2023-05-21T14:34:51.479Z,25.42
2023-05-21T14:36:26.287Z,24.76
2023-05-21T14:38:52.684Z,24.54
2023-05-21T14:39:51.563Z,24.54
2023-05-21T14:41:19.031Z,23.94
2023-05-21T14:43:45.428Z,24.54
2023-05-21T14:44:52.493Z,24.54
2023-05-21T14:46:11.822Z,24.81
2023-05-21T14:48:38.288Z,25.19
2023-05-21T14:49:51.799Z,25.19
2023-05-21T14:51:04.698Z,25.41
2023-05-21T14:53:31.225Z,25.54
2023-05-21T14:54:51.479Z,25.54
2023-05-21T14:55:57.659Z,24.62
2023-05-21T14:58:24.118Z,24.32
2023-05-21T14:59:51.491Z,24.32
2023-05-21T15:00:50.609Z,24.76
2023-05-21T15:03:17.227Z,24.72
2023-05-21T15:04:51.480Z,24.72
2023-05-21T15:05:43.676Z,24.15
2023-05-21T15:08:10.079Z,24.23
2023-05-21T15:09:51.499Z,24.23
2023-05-21T15:10:36.449Z,24.31
2023-05-21T15:13:02.900Z,24.52
2023-05-21T15:14:51.526Z,24.52
2023-05-21T15:15:29.369Z,23.91
2023-05-21T15:17:57.712Z,24.35
2023-05-21T15:19:51.473Z,24.35
2023-05-21T15:20:24.381Z,24.15
2023-05-21T15:22:59.051Z,24.27
2023-05-21T15:24:51.502Z,24.27
2023-05-21T15:25:35.354Z,24.44
2023-05-21T15:28:02.086Z,24.37
2023-05-21T15:29:51.489Z,24.37
2023-05-21T15:30:28.438Z,23.30
2023-05-21T15:32:54.889Z,23.89
2023-05-21T15:34:51.613Z,23.89
2023-05-21T15:35:21.519Z,23.72
2023-05-21T15:37:48.035Z,23.96
2023-05-21T15:39:51.497Z,23.96
2023-05-21T15:40:14.557Z,24.05
2023-05-21T15:42:40.918Z,23.02
2023-05-21T15:44:51.519Z,23.02
2023-05-21T15:45:07.831Z,24.02
2023-05-21T15:47:34.302Z,23.35
2023-05-21T15:49:51.516Z,23.35
2023-05-21T15:50:01.149Z,23.70
2023-05-21T15:52:27.566Z,23.79
2023-05-21T15:54:51.503Z,23.79
2023-05-21T15:54:53.965Z,24.10
2023-05-21T15:57:20.821Z,23.87
2023-05-21T15:59:47.358Z,23.56
2023-05-21T15:59:51.488Z,23.56
2023-05-21T16:02:13.788Z,23.80
2023-05-21T16:04:40.244Z,23.84
2023-05-21T16:04:51.522Z,23.84
2023-05-21T16:07:06.676Z,23.94
2023-05-21T16:09:33.294Z,23.56
2023-05-21T16:09:51.581Z,23.56
2023-05-21T16:11:59.669Z,24.14
2023-05-21T16:14:26.161Z,24.01
2023-05-21T16:14:51.516Z,24.01
2023-05-21T16:16:52.693Z,24.02
2023-05-21T16:19:19.136Z,23.70
2023-05-21T16:19:51.524Z,23.70
2023-05-21T16:21:45.584Z,23.98
2023-05-21T16:24:11.991Z,24.10
2023-05-21T16:24:51.528Z,24.10
2023-05-21T16:26:38.470Z,23.68
2023-05-21T16:29:04.931Z,23.57
2023-05-21T16:29:51.496Z,23.57
2023-05-21T16:31:31.658Z,23.79
2023-05-21T16:33:58.099Z,23.62
2023-05-21T16:34:51.562Z,23.62
2023-05-21T16:36:24.512Z,23.43
2023-05-21T16:38:50.928Z,23.52
2023-05-21T16:39:51.597Z,23.52
2023-05-21T16:41:17.403Z,23.36
2023-05-21T16:43:43.803Z,23.62
2023-05-21T16:44:51.523Z,23.62
2023-05-21T16:46:10.459Z,23.62
2023-05-21T16:48:38.416Z,23.52
2023-05-21T16:49:51.552Z,23.52
2023-05-21T16:51:04.984Z,23.58
2023-05-21T16:53:31.426Z,23.24
2023-05-21T16:54:51.552Z,23.24
2023-05-21T16:55:57.908Z,23.61
2023-05-21T16:58:24.542Z,23.47
2023-05-21T16:59:51.568Z,23.47
2023-05-21T17:00:51.079Z,23.20
2023-05-21T17:03:17.938Z,23.25
2023-05-21T17:04:51.545Z,23.25
2023-05-21T17:05:44.587Z,23.35
2023-05-21T17:08:11.102Z,23.00
2023-05-21T17:09:51.544Z,23.00
2023-05-21T17:10:37.496Z,23.26
2023-05-21T17:13:17.790Z,23.21
2023-05-21T17:14:51.552Z,23.21
2023-05-21T17:15:47.672Z,23.09
2023-05-21T17:18:14.241Z,22.74
2023-05-21T17:19:51.567Z,22.74
2023-05-21T17:20:40.987Z,22.30
2023-05-21T17:23:07.396Z,22.45
2023-05-21T17:24:51.584Z,22.45
2023-05-21T17:25:34.776Z,22.53
2023-05-21T17:28:01.461Z,22.43
2023-05-21T17:29:51.549Z,22.43
2023-05-21T17:30:27.912Z,22.45
2023-05-21T17:32:58.056Z,22.53
2023-05-21T17:34:51.557Z,22.53
2023-05-21T17:35:24.533Z,22.60
2023-05-21T17:37:53.139Z,22.55
2023-05-21T17:39:51.597Z,22.55
2023-05-21T17:40:21.315Z,22.65
2023-05-21T17:42:47.934Z,22.52
2023-05-21T17:44:51.533Z,22.52
2023-05-21T17:45:14.416Z,22.60
2023-05-21T17:47:40.874Z,22.63
2023-05-21T17:49:51.607Z,22.63
2023-05-21T17:50:08.071Z,22.19
2023-05-21T17:52:34.539Z,22.52
2023-05-21T17:54:51.524Z,22.52
2023-05-21T17:55:01.540Z,22.16
2023-05-21T17:57:27.992Z,22.02
2023-05-21T17:59:51.583Z,22.02
2023-05-21T17:59:55.157Z,21.97
2023-05-21T18:02:23.410Z,22.14
2023-05-21T18:04:49.876Z,22.02
2023-05-21T18:04:51.537Z,22.02
2023-05-21T18:07:16.500Z,21.80
2023-05-21T18:09:42.869Z,22.13
2023-05-21T18:09:51.543Z,22.13
2023-05-21T18:12:09.439Z,22.44
2023-05-21T18:14:35.922Z,22.29
2023-05-21T18:14:51.557Z,22.29
2023-05-21T18:17:02.570Z,22.37
2023-05-21T18:19:30.371Z,22.11
2023-05-21T18:19:51.539Z,22.11
2023-05-21T18:21:56.941Z,22.13
2023-05-21T18:24:23.393Z,21.56
2023-05-21T18:24:51.541Z,21.56
2023-05-21T18:26:49.899Z,21.74
2023-05-21T18:29:16.272Z,21.31
2023-05-21T18:29:51.518Z,21.31
2023-05-21T18:31:44.407Z,21.55
2023-05-21T18:34:11.047Z,21.43
2023-05-21T18:34:51.549Z,21.43
2023-05-21T18:36:40.668Z,21.43
2023-05-21T18:39:07.906Z,21.47
2023-05-21T18:39:51.598Z,21.47
2023-05-21T18:41:34.382Z,21.57
2023-05-21T18:44:03.848Z,21.58
2023-05-21T18:44:51.522Z,21.58
2023-05-21T18:46:31.623Z,21.41
2023-05-21T18:48:59.756Z,20.51
2023-05-21T18:49:51.531Z,20.51
2023-05-21T18:51:26.187Z,20.30
2023-05-21T18:53:52.634Z,19.74
2023-05-21T18:54:51.559Z,19.74
2023-05-21T18:56:19.098Z,19.40
2023-05-21T18:58:45.616Z,19.98
2023-05-21T18:59:51.543Z,19.98
2023-05-21T19:01:12.130Z,19.95
2023-05-21T19:03:38.684Z,18.84
2023-05-21T19:04:51.664Z,18.84
2023-05-21T19:06:05.377Z,19.21
2023-05-21T19:08:31.807Z,18.38
2023-05-21T19:09:51.560Z,18.38
2023-05-21T19:10:58.301Z,18.36
2023-05-21T19:13:27.165Z,18.33
2023-05-21T19:14:51.554Z,18.33
2023-05-21T19:15:53.627Z,18.20
2023-05-21T19:18:20.049Z,18.53
2023-05-21T19:19:51.534Z,18.53
2023-05-21T19:20:46.489Z,18.18
2023-05-21T19:23:12.881Z,18.51
2023-05-21T19:24:51.570Z,18.51
2023-05-21T19:25:39.428Z,18.01
2023-05-21T19:28:05.960Z,18.06
2023-05-21T19:29:51.528Z,18.06
2023-05-21T19:30:34.826Z,18.53
2023-05-21T19:33:01.695Z,18.46
2023-05-21T19:34:51.577Z,18.46
2023-05-21T19:35:28.301Z,18.46
2023-05-21T19:37:58.594Z,18.64
2023-05-21T19:39:51.619Z,18.64
2023-05-21T19:40:25.158Z,18.49
2023-05-21T19:42:51.626Z,18.53
2023-05-21T19:44:51.590Z,18.53
2023-05-21T19:45:18.040Z,18.01
2023-05-21T19:47:44.526Z,18.30
2023-05-21T19:49:51.599Z,18.30
2023-05-21T19:50:11.788Z,18.22
2023-05-21T19:52:39.205Z,18.65
2023-05-21T19:54:51.581Z,18.65
2023-05-21T19:55:08.492Z,18.67
2023-05-21T19:57:34.973Z,17.61
2023-05-21T19:59:51.561Z,17.61
2023-05-21T20:00:01.559Z,18.58
2023-05-21T20:02:30.793Z,18.72
2023-05-21T20:04:51.547Z,18.72
2023-05-21T20:04:58.801Z,18.70
2023-05-21T20:07:25.475Z,18.73
2023-05-21T20:09:52.387Z,17.90
2023-05-21T20:09:52.557Z,17.90
2023-05-21T20:12:18.973Z,18.69
2023-05-21T20:14:46.810Z,18.39
2023-05-21T20:14:51.518Z,18.39
2023-05-21T20:17:14.397Z,18.49
2023-05-21T20:19:40.933Z,18.75
2023-05-21T20:19:51.598Z,18.75
2023-05-21T20:22:07.363Z,18.08
2023-05-21T20:24:33.801Z,18.74
2023-05-21T20:24:51.554Z,18.74
2023-05-21T20:27:01.597Z,18.43
2023-05-21T20:29:28.830Z,18.69
2023-05-21T20:29:51.571Z,18.69
2023-05-21T20:31:55.446Z,18.53
2023-05-21T20:34:24.753Z,18.78
2023-05-21T20:35:02.897Z,18.78
2023-05-21T20:36:52.202Z,18.78
2023-05-21T20:39:21.862Z,18.81
2023-05-21T20:39:51.632Z,18.81
2023-05-21T20:41:48.253Z,18.84
2023-05-21T20:44:14.779Z,18.52
2023-05-21T20:44:51.552Z,18.52
2023-05-21T20:46:41.598Z,18.74
2023-05-21T20:49:09.684Z,18.45
2023-05-21T20:49:51.556Z,18.45
2023-05-21T20:51:36.159Z,18.44
2023-05-21T20:54:02.591Z,18.80
2023-05-21T20:54:51.549Z,18.80
2023-05-21T20:56:40.777Z,18.49
2023-05-21T20:59:09.254Z,18.83
2023-05-21T20:59:51.548Z,18.83
2023-05-21T21:01:37.853Z,18.77
2023-05-21T21:04:04.960Z,18.66
2023-05-21T21:04:51.583Z,18.66
2023-05-21T21:06:31.800Z,18.71
2023-05-21T21:08:58.429Z,18.08
2023-05-21T21:09:51.554Z,18.08
2023-05-21T21:11:24.875Z,18.04
2023-05-21T21:13:51.825Z,18.30
2023-05-21T21:14:51.570Z,18.30
2023-05-21T21:16:18.385Z,18.44
2023-05-21T21:18:46.864Z,18.56